sensor_id;sensor_type;location;lat;lon;timestamp;pressure;altitude;pressure_sealevel;temperature;humidity
10587;BME280;5341;47.606;7.576;2023-09-30T00:00:31;99672.00;;;22.38;47.22
10587;BME280;5341;47.606;7.576;2023-09-30T00:02:59;99670.34;;;22.37;47.27
10587;BME280;5341;47.606;7.576;2023-09-30T00:05:28;99669.75;;;22.35;47.44
10587;BME280;5341;47.606;7.576;2023-09-30T00:07:56;99676.28;;;22.34;47.36
10587;BME280;5341;47.606;7.576;2023-09-30T00:10:26;99677.59;;;22.32;47.38
10587;BME280;5341;47.606;7.576;2023-09-30T00:12:53;99679.47;;;22.31;47.36
10587;BME280;5341;47.606;7.576;2023-09-30T00:15:21;99680.75;;;22.29;47.45
10587;BME280;5341;47.606;7.576;2023-09-30T00:17:48;99670.09;;;22.27;47.36
10587;BME280;5341;47.606;7.576;2023-09-30T00:20:16;99671.41;;;22.25;47.36
10587;BME280;5341;47.606;7.576;2023-09-30T00:22:44;99671.66;;;22.23;47.46
10587;BME280;5341;47.606;7.576;2023-09-30T00:25:11;99682.78;;;22.21;47.36
10587;BME280;5341;47.606;7.576;2023-09-30T00:27:41;99675.09;;;22.18;47.50
10587;BME280;5341;47.606;7.576;2023-09-30T00:30:09;99675.34;;;22.17;47.58
10587;BME280;5341;47.606;7.576;2023-09-30T00:32:36;99665.72;;;22.14;47.49
10587;BME280;5341;47.606;7.576;2023-09-30T00:35:06;99665.94;;;22.13;47.57
10587;BME280;5341;47.606;7.576;2023-09-30T00:37:37;99669.16;;;22.10;47.53
10587;BME280;5341;47.606;7.576;2023-09-30T00:40:06;99666.66;;;22.08;47.57
10587;BME280;5341;47.606;7.576;2023-09-30T00:42:36;99677.81;;;22.07;47.51
10587;BME280;5341;47.606;7.576;2023-09-30T00:45:07;99680.72;;;22.05;47.71
10587;BME280;5341;47.606;7.576;2023-09-30T00:47:35;99679.88;;;22.05;47.61
10587;BME280;5341;47.606;7.576;2023-09-30T00:50:04;99678.44;;;22.02;47.59
10587;BME280;5341;47.606;7.576;2023-09-30T00:52:35;99674.06;;;22.01;47.58
10587;BME280;5341;47.606;7.576;2023-09-30T00:55:05;99667.19;;;21.99;47.90
10587;BME280;5341;47.606;7.576;2023-09-30T00:57:34;99664.72;;;21.97;47.74
10587;BME280;5341;47.606;7.576;2023-09-30T01:00:06;99663.28;;;21.94;47.62
10587;BME280;5341;47.606;7.576;2023-09-30T01:02:38;99666.25;;;21.93;47.67
10587;BME280;5341;47.606;7.576;2023-09-30T01:05:08;99667.53;;;21.90;47.54
10587;BME280;5341;47.606;7.576;2023-09-30T01:07:36;99659.38;;;21.90;47.53
10587;BME280;5341;47.606;7.576;2023-09-30T01:10:04;99662.31;;;21.89;47.55
10587;BME280;5341;47.606;7.576;2023-09-30T01:12:32;99669.91;;;21.87;47.84
10587;BME280;5341;47.606;7.576;2023-09-30T01:15:01;99658.19;;;21.86;47.61
10587;BME280;5341;47.606;7.576;2023-09-30T01:17:32;99656.75;;;21.84;47.67
10587;BME280;5341;47.606;7.576;2023-09-30T01:20:01;99656.16;;;21.82;47.64
10587;BME280;5341;47.606;7.576;2023-09-30T01:22:32;99652.81;;;21.80;47.73
10587;BME280;5341;47.606;7.576;2023-09-30T01:25:01;99647.84;;;21.77;47.58
10587;BME280;5341;47.606;7.576;2023-09-30T01:27:29;99649.75;;;21.76;47.74
10587;BME280;5341;47.606;7.576;2023-09-30T01:29:57;99653.53;;;21.75;47.69
10587;BME280;5341;47.606;7.576;2023-09-30T01:32:25;99648.31;;;21.74;47.57
10587;BME280;5341;47.606;7.576;2023-09-30T01:34:54;99646.66;;;21.73;47.53
10587;BME280;5341;47.606;7.576;2023-09-30T01:37:21;99646.66;;;21.73;47.66
10587;BME280;5341;47.606;7.576;2023-09-30T01:39:51;99648.81;;;21.71;47.81
10587;BME280;5341;47.606;7.576;2023-09-30T01:42:21;99650.94;;;21.69;47.89
10587;BME280;5341;47.606;7.576;2023-09-30T01:44:48;99648.41;;;21.67;47.86
10587;BME280;5341;47.606;7.576;2023-09-30T01:47:16;99636.09;;;21.64;47.86
10587;BME280;5341;47.606;7.576;2023-09-30T01:49:44;99642.63;;;21.63;47.89
10587;BME280;5341;47.606;7.576;2023-09-30T01:52:11;99661.91;;;21.62;48.03
10587;BME280;5341;47.606;7.576;2023-09-30T01:54:39;99655.88;;;21.60;47.83
10587;BME280;5341;47.606;7.576;2023-09-30T01:57:09;99661.53;;;21.58;47.94
10587;BME280;5341;47.606;7.576;2023-09-30T01:59:37;99655.28;;;21.58;47.91
10587;BME280;5341;47.606;7.576;2023-09-30T02:02:05;99656.34;;;21.57;47.87
10587;BME280;5341;47.606;7.576;2023-09-30T02:04:34;99662.81;;;21.56;47.95
10587;BME280;5341;47.606;7.576;2023-09-30T02:07:02;99665.53;;;21.56;48.09
10587;BME280;5341;47.606;7.576;2023-09-30T02:09:29;99660.97;;;21.56;48.09
10587;BME280;5341;47.606;7.576;2023-09-30T02:11:59;99672.88;;;21.55;47.80
10587;BME280;5341;47.606;7.576;2023-09-30T02:14:30;99665.78;;;21.54;47.99
10587;BME280;5341;47.606;7.576;2023-09-30T02:16:59;99660.56;;;21.53;48.04
10587;BME280;5341;47.606;7.576;2023-09-30T02:19:26;99657.00;;;21.52;48.00
10587;BME280;5341;47.606;7.576;2023-09-30T02:21:57;99649.09;;;21.51;48.15
10587;BME280;5341;47.606;7.576;2023-09-30T02:24:25;99644.72;;;21.50;47.99
10587;BME280;5341;47.606;7.576;2023-09-30T02:26:53;99646.00;;;21.47;48.14
10587;BME280;5341;47.606;7.576;2023-09-30T02:29:23;99651.44;;;21.47;48.21
10587;BME280;5341;47.606;7.576;2023-09-30T02:31:53;99653.34;;;21.47;48.32
10587;BME280;5341;47.606;7.576;2023-09-30T02:34:22;99646.44;;;21.44;48.22
10587;BME280;5341;47.606;7.576;2023-09-30T02:36:50;99640.16;;;21.44;48.16
10587;BME280;5341;47.606;7.576;2023-09-30T02:39:19;99632.25;;;21.42;48.42
10587;BME280;5341;47.606;7.576;2023-09-30T02:41:46;99640.41;;;21.42;48.28
10587;BME280;5341;47.606;7.576;2023-09-30T02:44:17;99648.81;;;21.41;48.32
10587;BME280;5341;47.606;7.576;2023-09-30T02:46:44;99639.81;;;21.40;48.34
10587;BME280;5341;47.606;7.576;2023-09-30T02:49:14;99647.16;;;21.40;48.45
10587;BME280;5341;47.606;7.576;2023-09-30T02:51:42;99645.50;;;21.39;48.53
10587;BME280;5341;47.606;7.576;2023-09-30T02:54:10;99655.56;;;21.38;48.36
10587;BME280;5341;47.606;7.576;2023-09-30T02:56:42;99659.34;;;21.37;48.41
10587;BME280;5341;47.606;7.576;2023-09-30T02:59:12;99661.22;;;21.37;48.52
10587;BME280;5341;47.606;7.576;2023-09-30T03:01:40;99663.94;;;21.37;48.66
10587;BME280;5341;47.606;7.576;2023-09-30T03:04:08;99667.97;;;21.34;48.87
10587;BME280;5341;47.606;7.576;2023-09-30T03:06:40;99665.69;;;21.31;48.72
10587;BME280;5341;47.606;7.576;2023-09-30T03:09:08;99655.03;;;21.29;49.18
10587;BME280;5341;47.606;7.576;2023-09-30T03:11:38;99654.44;;;21.27;48.89
10587;BME280;5341;47.606;7.576;2023-09-30T03:14:06;99654.44;;;21.27;48.98
10587;BME280;5341;47.606;7.576;2023-09-30T03:16:35;99662.59;;;21.27;48.95
10587;BME280;5341;47.606;7.576;2023-09-30T03:19:04;99655.25;;;21.28;49.06
10587;BME280;5341;47.606;7.576;2023-09-30T03:21:34;99662.59;;;21.27;49.02
10587;BME280;5341;47.606;7.576;2023-09-30T03:24:04;99671.59;;;21.28;49.16
10587;BME280;5341;47.606;7.576;2023-09-30T03:26:34;99668.28;;;21.26;49.07
10587;BME280;5341;47.606;7.576;2023-09-30T03:29:02;99670.16;;;21.25;49.32
10587;BME280;5341;47.606;7.576;2023-09-30T03:31:31;99666.59;;;21.25;49.27
10587;BME280;5341;47.606;7.576;2023-09-30T03:33:59;99675.81;;;21.24;49.19
10587;BME280;5341;47.606;7.576;2023-09-30T03:36:27;99668.72;;;21.23;49.20
10587;BME280;5341;47.606;7.576;2023-09-30T03:38:55;99659.47;;;21.24;49.17
10587;BME280;5341;47.606;7.576;2023-09-30T03:41:28;99654.03;;;21.24;49.27
10587;BME280;5341;47.606;7.576;2023-09-30T03:43:56;99651.31;;;21.24;49.30
10587;BME280;5341;47.606;7.576;2023-09-30T03:46:24;99634.16;;;21.23;49.32
10587;BME280;5341;47.606;7.576;2023-09-30T03:48:52;99620.56;;;21.23;49.23
10587;BME280;5341;47.606;7.576;2023-09-30T03:51:21;99605.06;;;21.24;48.81
10587;BME280;5341;47.606;7.576;2023-09-30T03:53:52;99590.63;;;21.23;49.08
10587;BME280;5341;47.606;7.576;2023-09-30T03:56:20;99588.75;;;21.24;49.08
10587;BME280;5341;47.606;7.576;2023-09-30T03:58:50;99603.41;;;21.23;49.16
10587;BME280;5341;47.606;7.576;2023-09-30T04:01:18;99608.03;;;21.22;49.30
10587;BME280;5341;47.606;7.576;2023-09-30T04:03:46;99614.53;;;21.21;49.40
10587;BME280;5341;47.606;7.576;2023-09-30T04:06:14;99629.19;;;21.20;49.41
10587;BME280;5341;47.606;7.576;2023-09-30T04:08:43;99636.72;;;21.18;49.58
10587;BME280;5341;47.606;7.576;2023-09-30T04:11:10;99630.47;;;21.18;49.46
10587;BME280;5341;47.606;7.576;2023-09-30T04:13:44;99629.63;;;21.17;49.50
10587;BME280;5341;47.606;7.576;2023-09-30T04:16:18;99634.25;;;21.17;49.55
10587;BME280;5341;47.606;7.576;2023-09-30T04:18:46;99630.94;;;21.15;49.51
10587;BME280;5341;47.606;7.576;2023-09-30T04:21:16;99629.88;;;21.16;49.50
10587;BME280;5341;47.606;7.576;2023-09-30T04:23:43;99638.03;;;21.16;49.53
10587;BME280;5341;47.606;7.576;2023-09-30T04:26:12;99633.66;;;21.15;49.53
10587;BME280;5341;47.606;7.576;2023-09-30T04:28:40;99644.53;;;21.15;49.67
10587;BME280;5341;47.606;7.576;2023-09-30T04:31:07;99648.31;;;21.14;49.67
10587;BME280;5341;47.606;7.576;2023-09-30T04:33:37;99660.25;;;21.13;49.91
10587;BME280;5341;47.606;7.576;2023-09-30T04:36:06;99665.94;;;21.11;49.87
10587;BME280;5341;47.606;7.576;2023-09-30T04:38:35;99672.44;;;21.10;49.86
10587;BME280;5341;47.606;7.576;2023-09-30T04:41:03;99660.72;;;21.10;50.06
10587;BME280;5341;47.606;7.576;2023-09-30T04:43:33;99668.06;;;21.09;50.01
10587;BME280;5341;47.606;7.576;2023-09-30T04:46:04;99665.53;;;21.07;49.87
10587;BME280;5341;47.606;7.576;2023-09-30T04:48:33;99683.75;;;21.07;50.25
10587;BME280;5341;47.606;7.576;2023-09-30T04:51:06;99683.13;;;21.05;50.08
10587;BME280;5341;47.606;7.576;2023-09-30T04:53:34;99673.31;;;21.04;50.20
10587;BME280;5341;47.606;7.576;2023-09-30T04:56:02;99670.59;;;21.04;50.36
10587;BME280;5341;47.606;7.576;2023-09-30T04:58:31;99663.50;;;21.03;50.31
10587;BME280;5341;47.606;7.576;2023-09-30T05:00:58;99678.75;;;21.04;50.32
10587;BME280;5341;47.606;7.576;2023-09-30T05:03:26;99677.94;;;21.03;50.26
10587;BME280;5341;47.606;7.576;2023-09-30T05:05:54;99689.66;;;21.04;50.25
10587;BME280;5341;47.606;7.576;2023-09-30T05:08:25;99685.25;;;21.03;50.30
10587;BME280;5341;47.606;7.576;2023-09-30T05:10:55;99686.31;;;21.02;50.22
10587;BME280;5341;47.606;7.576;2023-09-30T05:13:24;99684.44;;;21.02;50.48
10587;BME280;5341;47.606;7.576;2023-09-30T05:15:52;99693.88;;;21.00;50.52
10587;BME280;5341;47.606;7.576;2023-09-30T05:18:20;99696.84;;;20.98;50.38
10587;BME280;5341;47.606;7.576;2023-09-30T05:20:48;99698.72;;;20.98;50.49
10587;BME280;5341;47.606;7.576;2023-09-30T05:23:16;99697.91;;;20.97;50.70
10587;BME280;5341;47.606;7.576;2023-09-30T05:25:46;99703.34;;;20.97;50.49
10587;BME280;5341;47.606;7.576;2023-09-30T05:28:14;99700.84;;;20.96;50.75
10587;BME280;5341;47.606;7.576;2023-09-30T05:30:42;99699.16;;;20.95;50.80
10587;BME280;5341;47.606;7.576;2023-09-30T05:33:11;99708.38;;;20.94;50.85
10587;BME280;5341;47.606;7.576;2023-09-30T05:35:40;99715.69;;;20.93;50.77
10587;BME280;5341;47.606;7.576;2023-09-30T05:38:08;99706.72;;;20.93;50.69
10587;BME280;5341;47.606;7.576;2023-09-30T05:40:36;99699.38;;;20.93;50.71
10587;BME280;5341;47.606;7.576;2023-09-30T05:43:05;99695.59;;;20.94;50.56
10587;BME280;5341;47.606;7.576;2023-09-30T05:45:33;99700.22;;;20.94;50.68
10587;BME280;5341;47.606;7.576;2023-09-30T05:48:01;99704.81;;;20.93;50.57
10587;BME280;5341;47.606;7.576;2023-09-30T05:50:32;99702.09;;;20.93;50.77
10587;BME280;5341;47.606;7.576;2023-09-30T05:53:00;99708.38;;;20.94;50.50
10587;BME280;5341;47.606;7.576;2023-09-30T05:55:28;99705.66;;;20.94;50.55
10587;BME280;5341;47.606;7.576;2023-09-30T05:57:57;99702.94;;;20.94;50.58
10587;BME280;5341;47.606;7.576;2023-09-30T06:00:28;99701.03;;;20.94;50.67
10587;BME280;5341;47.606;7.576;2023-09-30T06:02:57;99703.75;;;20.94;50.67
10587;BME280;5341;47.606;7.576;2023-09-30T06:05:25;99714.66;;;20.94;50.68
10587;BME280;5341;47.606;7.576;2023-09-30T06:07:56;99730.13;;;20.94;50.70
10587;BME280;5341;47.606;7.576;2023-09-30T06:10:25;99742.91;;;20.93;50.83
10587;BME280;5341;47.606;7.576;2023-09-30T06:12:53;99746.69;;;20.92;50.72
10587;BME280;5341;47.606;7.576;2023-09-30T06:15:21;99746.44;;;20.94;50.92
10587;BME280;5341;47.606;7.576;2023-09-30T06:17:56;99743.72;;;20.94;50.74
10587;BME280;5341;47.606;7.576;2023-09-30T06:20:23;99742.91;;;20.93;50.85
10587;BME280;5341;47.606;7.576;2023-09-30T06:22:52;99746.44;;;20.94;50.87
10587;BME280;5341;47.606;7.576;2023-09-30T06:25:20;99748.09;;;20.95;50.92
10587;BME280;5341;47.606;7.576;2023-09-30T06:27:50;99748.09;;;20.95;50.95
10587;BME280;5341;47.606;7.576;2023-09-30T06:30:20;99738.06;;;20.95;51.04
10587;BME280;5341;47.606;7.576;2023-09-30T06:32:47;99744.34;;;20.96;51.03
10587;BME280;5341;47.606;7.576;2023-09-30T06:35:17;99756.06;;;20.96;51.14
10587;BME280;5341;47.606;7.576;2023-09-30T06:37:44;99759.63;;;20.97;51.11
10587;BME280;5341;47.606;7.576;2023-09-30T06:40:13;99763.16;;;20.97;51.04
10587;BME280;5341;47.606;7.576;2023-09-30T06:42:40;99759.38;;;20.98;50.98
10587;BME280;5341;47.606;7.576;2023-09-30T06:45:10;99749.34;;;20.99;51.14
10587;BME280;5341;47.606;7.576;2023-09-30T06:47:40;99748.06;;;21.01;51.11
10587;BME280;5341;47.606;7.576;2023-09-30T06:50:10;99757.03;;;21.02;51.12
10587;BME280;5341;47.606;7.576;2023-09-30T06:52:41;99759.53;;;21.03;51.19
10587;BME280;5341;47.606;7.576;2023-09-30T06:55:11;99763.91;;;21.04;51.25
10587;BME280;5341;47.606;7.576;2023-09-30T06:57:42;99771.00;;;21.05;51.20
10587;BME280;5341;47.606;7.576;2023-09-30T07:00:11;99761.78;;;21.06;51.16
10587;BME280;5341;47.606;7.576;2023-09-30T07:02:40;99765.13;;;21.09;51.11
10587;BME280;5341;47.606;7.576;2023-09-30T07:05:09;99758.41;;;21.11;51.21
10587;BME280;5341;47.606;7.576;2023-09-30T07:07:42;99759.84;;;21.14;51.41
10587;BME280;5341;47.606;7.576;2023-09-30T07:10:10;99753.09;;;21.16;51.01
10587;BME280;5341;47.606;7.576;2023-09-30T07:12:38;99762.69;;;21.19;51.22
10587;BME280;5341;47.606;7.576;2023-09-30T07:15:07;99767.09;;;21.20;51.26
10587;BME280;5341;47.606;7.576;2023-09-30T07:17:35;99781.31;;;21.22;51.20
10587;BME280;5341;47.606;7.576;2023-09-30T07:20:04;99782.97;;;21.23;51.34
10587;BME280;5341;47.606;7.576;2023-09-30T07:22:32;99773.75;;;21.24;51.45
10587;BME280;5341;47.606;7.576;2023-09-30T07:25:03;99781.72;;;21.25;51.44
10587;BME280;5341;47.606;7.576;2023-09-30T07:27:31;99784.22;;;21.27;51.68
10587;BME280;5341;47.606;7.576;2023-09-30T07:29:59;99785.88;;;21.28;51.34
10587;BME280;5341;47.606;7.576;2023-09-30T07:32:29;99775.34;;;21.31;51.45
10587;BME280;5341;47.606;7.576;2023-09-30T07:34:57;99763.81;;;21.36;51.54
10587;BME280;5341;47.606;7.576;2023-09-30T07:37:28;99765.84;;;21.41;51.46
10587;BME280;5341;47.606;7.576;2023-09-30T07:39:56;99770.81;;;21.44;51.62
10587;BME280;5341;47.606;7.576;2023-09-30T07:42:25;99774.75;;;21.48;51.68
10587;BME280;5341;47.606;7.576;2023-09-30T07:45:04;99764.22;;;21.51;51.45
10587;BME280;5341;47.606;7.576;2023-09-30T07:47:31;99767.31;;;21.55;51.44
10587;BME280;5341;47.606;7.576;2023-09-30T07:50:01;99770.44;;;21.58;51.62
10587;BME280;5341;47.606;7.576;2023-09-30T07:52:35;99768.06;;;21.62;51.58
10587;BME280;5341;47.606;7.576;2023-09-30T07:55:05;99782.88;;;21.66;51.52
10587;BME280;5341;47.606;7.576;2023-09-30T07:57:36;99783.03;;;21.71;51.80
10587;BME280;5341;47.606;7.576;2023-09-30T08:00:05;99796.19;;;21.74;51.83
10587;BME280;5341;47.606;7.576;2023-09-30T08:02:35;99800.94;;;21.79;51.79
10587;BME280;5341;47.606;7.576;2023-09-30T08:05:05;99784.16;;;21.82;51.84
10587;BME280;5341;47.606;7.576;2023-09-30T08:07:33;99785.34;;;21.86;52.01
10587;BME280;5341;47.606;7.576;2023-09-30T08:10:01;99793.06;;;21.89;51.87
10587;BME280;5341;47.606;7.576;2023-09-30T08:12:30;99797.81;;;21.93;52.10
10587;BME280;5341;47.606;7.576;2023-09-30T08:15:00;99808.25;;;21.97;52.55
10587;BME280;5341;47.606;7.576;2023-09-30T08:17:29;99802.56;;;21.98;52.52
10587;BME280;5341;47.606;7.576;2023-09-30T08:19:57;99788.47;;;22.01;52.50
10587;BME280;5341;47.606;7.576;2023-09-30T08:22:24;99771.91;;;22.03;52.21
10587;BME280;5341;47.606;7.576;2023-09-30T08:24:53;99785.72;;;22.08;52.20
10587;BME280;5341;47.606;7.576;2023-09-30T08:27:22;99778.72;;;22.12;52.17
10587;BME280;5341;47.606;7.576;2023-09-30T08:29:50;99784.31;;;22.17;52.34
10587;BME280;5341;47.606;7.576;2023-09-30T08:32:20;99782.53;;;22.22;52.37
10587;BME280;5341;47.606;7.576;2023-09-30T08:34:48;99787.03;;;22.29;52.46
10587;BME280;5341;47.606;7.576;2023-09-30T08:37:16;99775.47;;;22.33;52.51
10587;BME280;5341;47.606;7.576;2023-09-30T08:39:43;99770.13;;;22.38;52.32
10587;BME280;5341;47.606;7.576;2023-09-30T08:42:11;99770.28;;;22.43;52.18
10587;BME280;5341;47.606;7.576;2023-09-30T08:44:38;99770.75;;;22.52;52.40
10587;BME280;5341;47.606;7.576;2023-09-30T08:47:06;99777.16;;;22.58;52.01
10587;BME280;5341;47.606;7.576;2023-09-30T08:49:38;99784.63;;;22.62;52.06
10587;BME280;5341;47.606;7.576;2023-09-30T08:52:09;99803.22;;;22.65;51.93
10587;BME280;5341;47.606;7.576;2023-09-30T08:54:37;99803.03;;;22.67;52.24
10587;BME280;5341;47.606;7.576;2023-09-30T08:57:08;99803.38;;;22.70;52.25
10587;BME280;5341;47.606;7.576;2023-09-30T08:59:38;99805.63;;;22.73;52.26
10587;BME280;5341;47.606;7.576;2023-09-30T09:02:10;99813.94;;;22.78;52.28
10587;BME280;5341;47.606;7.576;2023-09-30T09:04:39;99817.03;;;22.82;52.17
10587;BME280;5341;47.606;7.576;2023-09-30T09:07:09;99810.03;;;22.86;52.04
10587;BME280;5341;47.606;7.576;2023-09-30T09:09:36;99814.81;;;22.91;52.19
10587;BME280;5341;47.606;7.576;2023-09-30T09:12:05;99810.53;;;22.95;51.93
10587;BME280;5341;47.606;7.576;2023-09-30T09:14:38;99806.00;;;23.00;51.89
10587;BME280;5341;47.606;7.576;2023-09-30T09:17:07;99790.84;;;23.04;52.06
10587;BME280;5341;47.606;7.576;2023-09-30T09:19:35;99797.72;;;23.07;51.79
10587;BME280;5341;47.606;7.576;2023-09-30T09:22:05;99797.81;;;23.12;51.67
10587;BME280;5341;47.606;7.576;2023-09-30T09:24:34;99791.06;;;23.15;51.70
10587;BME280;5341;47.606;7.576;2023-09-30T09:27:06;99774.81;;;23.20;51.58
10587;BME280;5341;47.606;7.576;2023-09-30T09:29:34;99772.41;;;23.23;51.58
10587;BME280;5341;47.606;7.576;2023-09-30T09:32:09;99772.53;;;23.28;51.57
10587;BME280;5341;47.606;7.576;2023-09-30T09:34:38;99767.16;;;23.33;51.71
10587;BME280;5341;47.606;7.576;2023-09-30T09:37:18;99753.16;;;23.42;51.70
10587;BME280;5341;47.606;7.576;2023-09-30T09:39:53;99754.31;;;23.46;51.53
10587;BME280;5341;47.606;7.576;2023-09-30T09:42:26;99751.22;;;23.54;51.50
10587;BME280;5341;47.606;7.576;2023-09-30T09:44:55;99751.09;;;23.60;51.24
10587;BME280;5341;47.606;7.576;2023-09-30T09:47:24;99729.38;;;23.65;51.07
10587;BME280;5341;47.606;7.576;2023-09-30T09:49:53;99730.03;;;23.73;51.08
10587;BME280;5341;47.606;7.576;2023-09-30T09:52:23;99735.34;;;23.79;50.85
10587;BME280;5341;47.606;7.576;2023-09-30T09:54:51;99747.19;;;23.85;50.91
10587;BME280;5341;47.606;7.576;2023-09-30T09:57:19;99741.59;;;23.91;50.64
10587;BME280;5341;47.606;7.576;2023-09-30T09:59:47;99731.56;;;23.97;50.58
10587;BME280;5341;47.606;7.576;2023-09-30T10:02:16;99733.91;;;24.05;50.35
10587;BME280;5341;47.606;7.576;2023-09-30T10:04:45;99725.31;;;24.13;50.30
10587;BME280;5341;47.606;7.576;2023-09-30T10:07:16;99720.50;;;24.20;50.06
10587;BME280;5341;47.606;7.576;2023-09-30T10:09:51;99716.78;;;24.26;50.24
10587;BME280;5341;47.606;7.576;2023-09-30T10:12:19;99726.50;;;24.34;50.15
10587;BME280;5341;47.606;7.576;2023-09-30T10:14:49;99728.81;;;24.42;49.98
10587;BME280;5341;47.606;7.576;2023-09-30T10:17:16;99723.78;;;24.51;49.62
10587;BME280;5341;47.606;7.576;2023-09-30T10:20:04;99717.03;;;24.59;49.36
10587;BME280;5341;47.606;7.576;2023-09-30T10:22:33;99723.44;;;24.64;49.59
10587;BME280;5341;47.606;7.576;2023-09-30T10:25:35;99718.09;;;24.74;49.37
10587;BME280;5341;47.606;7.576;2023-09-30T10:28:34;99717.66;;;24.82;49.27
10587;BME280;5341;47.606;7.576;2023-09-30T10:31:09;99713.94;;;24.89;48.83
10587;BME280;5341;47.606;7.576;2023-09-30T10:36:41;99721.47;;;24.98;48.71
10587;BME280;5341;47.606;7.576;2023-09-30T10:39:11;99717.72;;;25.04;48.81
10587;BME280;5341;47.606;7.576;2023-09-30T10:41:51;99721.94;;;25.12;49.12
10587;BME280;5341;47.606;7.576;2023-09-30T10:44:36;99709.97;;;25.18;48.60
10587;BME280;5341;47.606;7.576;2023-09-30T10:47:35;99710.59;;;25.25;48.10
10587;BME280;5341;47.606;7.576;2023-09-30T10:50:03;99715.88;;;25.32;47.90
10587;BME280;5341;47.606;7.576;2023-09-30T10:52:51;99713.25;;;25.42;48.13
10587;BME280;5341;47.606;7.576;2023-09-30T10:55:19;99710.66;;;25.52;47.41
10587;BME280;5341;47.606;7.576;2023-09-30T10:57:53;99708.53;;;25.59;46.80
10587;BME280;5341;47.606;7.576;2023-09-30T11:00:21;99708.03;;;25.62;47.26
10587;BME280;5341;47.606;7.576;2023-09-30T11:02:49;99702.28;;;25.64;47.39
10587;BME280;5341;47.606;7.576;2023-09-30T11:05:17;99697.06;;;25.62;47.08
10587;BME280;5341;47.606;7.576;2023-09-30T11:07:48;99699.53;;;25.64;47.16
10587;BME280;5341;47.606;7.576;2023-09-30T11:10:17;99694.38;;;25.67;47.07
10587;BME280;5341;47.606;7.576;2023-09-30T11:12:56;99699.69;;;25.74;46.45
10587;BME280;5341;47.606;7.576;2023-09-30T11:15:24;99694.78;;;25.76;46.70
10587;BME280;5341;47.606;7.576;2023-09-30T11:17:53;99702.53;;;25.84;46.89
10587;BME280;5341;47.606;7.576;2023-09-30T11:20:21;99697.41;;;25.93;47.17
10587;BME280;5341;47.606;7.576;2023-09-30T11:22:48;99700.81;;;26.05;46.19
10587;BME280;5341;47.606;7.576;2023-09-30T11:25:16;99711.03;;;26.15;45.99
10587;BME280;5341;47.606;7.576;2023-09-30T11:27:45;99704.25;;;26.22;45.41
10587;BME280;5341;47.606;7.576;2023-09-30T11:30:16;99709.53;;;26.29;45.63
10587;BME280;5341;47.606;7.576;2023-09-30T11:32:44;99702.69;;;26.32;45.11
10587;BME280;5341;47.606;7.576;2023-09-30T11:35:22;99700.06;;;26.42;44.92
10587;BME280;5341;47.606;7.576;2023-09-30T11:37:51;99699.81;;;26.48;45.25
10587;BME280;5341;47.606;7.576;2023-09-30T11:40:19;99692.47;;;26.59;45.20
10587;BME280;5341;47.606;7.576;2023-09-30T11:43:07;99686.75;;;26.66;44.55
10587;BME280;5341;47.606;7.576;2023-09-30T11:45:39;99684.03;;;26.71;44.22
10587;BME280;5341;47.606;7.576;2023-09-30T11:48:17;99686.81;;;26.76;43.91
10587;BME280;5341;47.606;7.576;2023-09-30T11:50:47;99679.16;;;26.78;43.91
10587;BME280;5341;47.606;7.576;2023-09-30T11:53:16;99674.50;;;26.78;43.56
10587;BME280;5341;47.606;7.576;2023-09-30T11:55:46;99681.34;;;26.81;43.61
10587;BME280;5341;47.606;7.576;2023-09-30T11:58:14;99679.44;;;26.86;43.24
10587;BME280;5341;47.606;7.576;2023-09-30T12:00:46;99672.09;;;26.92;43.07
10587;BME280;5341;47.606;7.576;2023-09-30T12:03:14;99672.66;;;26.99;42.76
10587;BME280;5341;47.606;7.576;2023-09-30T12:05:42;99666.97;;;27.06;42.35
10587;BME280;5341;47.606;7.576;2023-09-30T12:08:11;99667.78;;;27.11;42.69
10587;BME280;5341;47.606;7.576;2023-09-30T12:10:39;99668.09;;;27.15;42.87
10587;BME280;5341;47.606;7.576;2023-09-30T12:13:07;99665.63;;;27.19;42.94
10587;BME280;5341;47.606;7.576;2023-09-30T12:15:37;99658.50;;;27.23;42.93
10587;BME280;5341;47.606;7.576;2023-09-30T12:18:07;99656.88;;;27.27;43.07
10587;BME280;5341;47.606;7.576;2023-09-30T12:20:36;99656.06;;;27.31;42.49
10587;BME280;5341;47.606;7.576;2023-09-30T12:23:03;99662.13;;;27.38;42.31
10587;BME280;5341;47.606;7.576;2023-09-30T12:25:31;99653.63;;;27.45;41.57
10587;BME280;5341;47.606;7.576;2023-09-30T12:27:59;99661.06;;;27.55;41.01
10587;BME280;5341;47.606;7.576;2023-09-30T12:30:26;99655.06;;;27.63;40.32
10587;BME280;5341;47.606;7.576;2023-09-30T12:32:54;99649.56;;;27.68;40.42
10587;BME280;5341;47.606;7.576;2023-09-30T12:35:24;99647.66;;;27.73;40.00
10587;BME280;5341;47.606;7.576;2023-09-30T12:37:52;99650.41;;;27.79;39.76
10587;BME280;5341;47.606;7.576;2023-09-30T12:40:20;99655.91;;;27.84;39.52
10587;BME280;5341;47.606;7.576;2023-09-30T12:42:48;99649.31;;;27.90;39.47
10587;BME280;5341;47.606;7.576;2023-09-30T12:45:15;99644.91;;;27.94;39.24
10587;BME280;5341;47.606;7.576;2023-09-30T12:47:44;99640.25;;;27.94;39.88
10587;BME280;5341;47.606;7.576;2023-09-30T12:50:13;99634.19;;;27.97;39.15
10587;BME280;5341;47.606;7.576;2023-09-30T12:52:44;99629.81;;;28.01;38.44
10587;BME280;5341;47.606;7.576;2023-09-30T12:55:12;99626.78;;;28.03;38.35
10587;BME280;5341;47.606;7.576;2023-09-30T12:57:40;99627.03;;;28.07;38.39
10587;BME280;5341;47.606;7.576;2023-09-30T13:00:09;99619.34;;;28.09;38.82
10587;BME280;5341;47.606;7.576;2023-09-30T13:02:37;99620.72;;;28.11;38.21
10587;BME280;5341;47.606;7.576;2023-09-30T13:05:05;99626.50;;;28.15;37.41
10587;BME280;5341;47.606;7.576;2023-09-30T13:07:33;99622.91;;;28.14;37.50
10587;BME280;5341;47.606;7.576;2023-09-30T13:10:03;99627.88;;;28.17;36.87
10587;BME280;5341;47.606;7.576;2023-09-30T13:12:31;99635.00;;;28.18;37.25
10587;BME280;5341;47.606;7.576;2023-09-30T13:15:00;99638.59;;;28.19;37.77
10587;BME280;5341;47.606;7.576;2023-09-30T13:17:27;99634.44;;;28.21;38.08
10587;BME280;5341;47.606;7.576;2023-09-30T13:19:55;99626.78;;;28.23;38.45
10587;BME280;5341;47.606;7.576;2023-09-30T13:22:22;99630.06;;;28.25;39.09
10587;BME280;5341;47.606;7.576;2023-09-30T13:24:50;99634.75;;;28.25;38.15